Aviation Digital Data Service (ADDS)

Output produced by METARs form (2026 UTC 20 July 2017)
found at http://www.aviationweather.gov/adds/metars/
 
METAR text: KSLO 202015Z AUTO 18007KT 10SM CLR 36/22 A3002 RMK AO2 T03580216
Conditions at: KSLO (SALEM/LECKRONE , IL, US) observed 2015 UTC 20 July 2017
Temperature: 35.8°C (96°F)
Dewpoint: 21.6°C (71°F) [RH = 44%]
Pressure (altimeter): 30.02 inches Hg (1016.7 mb)
Winds: from the S (180 degrees) at 8 MPH (7 knots; 3.6 m/s)
Visibility: 10 or more miles (16+ km)
Ceiling: at least 12,000 feet AGL
Clouds: sky clear below 12,000 feet AGL
Weather: automated observation with no human augmentation;
there may or may not be significant weather present at this time